Startpagina
METAR-TAF:

METAR-TAF

Vliegvelden :

Tahiti, Frans-Polynesië

breedte: 17-33S, lengte: 149-37W, hoogte: 2 m

Actueel weer

Dit bericht is 6 minuten geleden gemaakt, om 01:00 UTC
Wind 8 kt uit het zuidwesten
Temperatuur 28°C
Vochtigheid 70%
Druk 1011 hPa
Zicht 10 km of meer
Weinig wolken op 2000 ft
Verspreide wolken op 13000 ft

METAR: NTAA 190100Z 22008KT 9999 FEW020 SCT130 28/22 Q1011 NOSIG

Tijdstip: 15:06 (01:06 UTC)

Verwachting

Dit bericht is 2 uur en het 6 minuten geleden gemaakt, om 23:00 UTC
Verwachting geldig van 19 om 00 UTC tot 20 om 06 UTC
Wind 3 kt uit variabele richting
Zicht 10 km of meer
Verspreide wolken op 2000 ft
Verspreide wolken op 5300 ft
Tijdelijke
van 19 om 00 UTC tot 19 om 03 UTC
Wind 13 kt uit het westzuidwesten

TAF: NTAA 182300Z 1900/2006 VRB03KT 9999 SCT020 SCT053 TEMPO 1900/1903 24013KT

Waarnemingen en weersverwachtingen van meer dan 4000 vliegvelden (METAR en TAF).

De beschikbare stations zijn de gele en rode punten op de kaart.

Ga met uw muis naar het station om de naam te zien.

Klik dan om waarnemingen en weersverwachtingen te zien.

kaart wijzigen: klik op de groene knoppen met een zwart kruis om in te zoomen, op de groene knop met een streepje om uit te zoomen of op de groene pijlen voor aangrenzende kaarten.


METAR-TAF: